sensor_id;sensor_type;location;lat;lon;timestamp;pressure;altitude;pressure_sealevel;temperature;humidity
47716;BME280;33476;50.984;3.538;2022-11-11T00:01:29;102924.34;;;13.83;68.69
47716;BME280;33476;50.984;3.538;2022-11-11T00:03:55;102918.50;;;13.71;69.22
47716;BME280;33476;50.984;3.538;2022-11-11T00:06:21;102927.34;;;13.69;69.52
47716;BME280;33476;50.984;3.538;2022-11-11T00:08:47;102930.13;;;13.63;69.45
47716;BME280;33476;50.984;3.538;2022-11-11T00:11:13;102941.41;;;13.66;69.35
47716;BME280;33476;50.984;3.538;2022-11-11T00:13:40;102940.47;;;13.69;69.64
47716;BME280;33476;50.984;3.538;2022-11-11T00:16:10;102942.28;;;13.67;69.56
47716;BME280;33476;50.984;3.538;2022-11-11T00:18:36;102954.34;;;13.74;69.30
47716;BME280;33476;50.984;3.538;2022-11-11T00:21:20;102949.09;;;13.72;68.77
47716;BME280;33476;50.984;3.538;2022-11-11T00:24:01;102940.16;;;13.80;68.73
47716;BME280;33476;50.984;3.538;2022-11-11T00:26:45;102949.97;;;13.73;68.53
47716;BME280;33476;50.984;3.538;2022-11-11T00:29:10;102942.09;;;13.73;69.02
47716;BME280;33476;50.984;3.538;2022-11-11T00:31:36;102934.09;;;13.77;68.99
47716;BME280;33476;50.984;3.538;2022-11-11T00:34:21;102934.16;;;13.76;68.71
47716;BME280;33476;50.984;3.538;2022-11-11T00:36:46;102925.31;;;13.78;68.86
47716;BME280;33476;50.984;3.538;2022-11-11T00:39:12;102934.09;;;13.77;69.00
47716;BME280;33476;50.984;3.538;2022-11-11T00:41:37;102932.44;;;13.75;69.05
47716;BME280;33476;50.984;3.538;2022-11-11T00:44:03;102941.22;;;13.74;69.24
47716;BME280;33476;50.984;3.538;2022-11-11T00:46:28;102931.44;;;13.79;68.97
47716;BME280;33476;50.984;3.538;2022-11-11T00:49:12;102932.38;;;13.76;69.25
47716;BME280;33476;50.984;3.538;2022-11-11T00:51:55;102931.69;;;13.70;69.19
47716;BME280;33476;50.984;3.538;2022-11-11T00:54:21;102925.56;;;13.69;69.19
47716;BME280;33476;50.984;3.538;2022-11-11T00:56:46;102925.63;;;13.68;69.14
47716;BME280;33476;50.984;3.538;2022-11-11T00:59:11;102932.53;;;13.70;69.39
47716;BME280;33476;50.984;3.538;2022-11-11T01:01:38;102932.78;;;13.61;69.69
47716;BME280;33476;50.984;3.538;2022-11-11T01:04:04;102925.78;;;13.62;69.96
47716;BME280;33476;50.984;3.538;2022-11-11T01:06:29;102929.19;;;13.65;69.79
47716;BME280;33476;50.984;3.538;2022-11-11T01:08:55;102944.75;;;13.71;69.33
47716;BME280;33476;50.984;3.538;2022-11-11T01:11:21;102928.16;;;13.71;69.34
47716;BME280;33476;50.984;3.538;2022-11-11T01:13:48;102927.44;;;13.66;69.68
47716;BME280;33476;50.984;3.538;2022-11-11T01:16:16;102929.19;;;13.65;69.70
47716;BME280;33476;50.984;3.538;2022-11-11T01:18:42;102929.97;;;13.69;69.30
47716;BME280;33476;50.984;3.538;2022-11-11T01:21:16;102921.19;;;13.70;69.64
47716;BME280;33476;50.984;3.538;2022-11-11T01:23:43;102932.53;;;13.70;69.23
47716;BME280;33476;50.984;3.538;2022-11-11T01:26:26;102925.69;;;13.65;69.14
47716;BME280;33476;50.984;3.538;2022-11-11T01:28:54;102923.81;;;13.70;68.97
47716;BME280;33476;50.984;3.538;2022-11-11T01:31:21;102923.09;;;13.63;69.39
47716;BME280;33476;50.984;3.538;2022-11-11T01:33:47;102930.13;;;13.63;69.49
47716;BME280;33476;50.984;3.538;2022-11-11T01:36:30;102939.81;;;13.61;69.29
47716;BME280;33476;50.984;3.538;2022-11-11T01:38:57;102931.16;;;13.57;69.33
47716;BME280;33476;50.984;3.538;2022-11-11T01:41:26;102932.03;;;13.58;69.40
47716;BME280;33476;50.984;3.538;2022-11-11T01:47:05;102940.66;;;13.61;69.08
47716;BME280;33476;50.984;3.538;2022-11-11T01:52:23;102934.34;;;13.68;68.67
47716;BME280;33476;50.984;3.538;2022-11-11T01:54:55;102934.66;;;13.58;69.17
47716;BME280;33476;50.984;3.538;2022-11-11T02:00:06;102931.03;;;13.62;69.18
47716;BME280;33476;50.984;3.538;2022-11-11T02:02:51;102925.03;;;13.57;69.53
47716;BME280;33476;50.984;3.538;2022-11-11T02:05:19;102920.47;;;13.63;68.94
47716;BME280;33476;50.984;3.538;2022-11-11T02:08:15;102920.69;;;13.56;69.13
47716;BME280;33476;50.984;3.538;2022-11-11T02:10:58;102920.38;;;13.68;68.86
47716;BME280;33476;50.984;3.538;2022-11-11T02:13:24;102917.84;;;13.63;68.83
47716;BME280;33476;50.984;3.538;2022-11-11T02:16:08;102911.09;;;13.55;69.12
47716;BME280;33476;50.984;3.538;2022-11-11T02:18:33;102912.09;;;13.51;69.29
47716;BME280;33476;50.984;3.538;2022-11-11T02:20:59;102912.13;;;13.49;68.88
47716;BME280;33476;50.984;3.538;2022-11-11T02:23:31;102904.31;;;13.46;69.17
47716;BME280;33476;50.984;3.538;2022-11-11T02:25:58;102906.13;;;13.44;69.03
47716;BME280;33476;50.984;3.538;2022-11-11T02:28:26;102905.28;;;13.43;69.24
47716;BME280;33476;50.984;3.538;2022-11-11T02:30:52;102888.91;;;13.34;69.54
47716;BME280;33476;50.984;3.538;2022-11-11T02:33:17;102899.38;;;13.35;69.15
47716;BME280;33476;50.984;3.538;2022-11-11T02:35:45;102891.41;;;13.38;69.19
47716;BME280;33476;50.984;3.538;2022-11-11T02:38:12;102894.72;;;13.45;69.14
47716;BME280;33476;50.984;3.538;2022-11-11T02:40:43;102893.31;;;13.33;69.01
47716;BME280;33476;50.984;3.538;2022-11-11T02:43:27;102895.94;;;13.32;68.94
47716;BME280;33476;50.984;3.538;2022-11-11T02:45:53;102885.44;;;13.33;69.22
47716;BME280;33476;50.984;3.538;2022-11-11T02:48:18;102882.66;;;13.38;68.83
47716;BME280;33476;50.984;3.538;2022-11-11T02:50:44;102893.13;;;13.39;68.75
47716;BME280;33476;50.984;3.538;2022-11-11T02:53:09;102892.34;;;13.36;68.59
47716;BME280;33476;50.984;3.538;2022-11-11T02:55:34;102885.34;;;13.36;68.95
47716;BME280;33476;50.984;3.538;2022-11-11T02:58:00;102893.06;;;13.42;68.68
47716;BME280;33476;50.984;3.538;2022-11-11T03:00:25;102886.03;;;13.43;68.56
47716;BME280;33476;50.984;3.538;2022-11-11T03:02:51;102888.63;;;13.44;68.25
47716;BME280;33476;50.984;3.538;2022-11-11T03:05:16;102882.59;;;13.41;68.36
47716;BME280;33476;50.984;3.538;2022-11-11T03:07:41;102888.81;;;13.37;68.60
47716;BME280;33476;50.984;3.538;2022-11-11T03:10:07;102886.25;;;13.35;68.80
47716;BME280;33476;50.984;3.538;2022-11-11T03:12:32;102897.50;;;13.39;68.24
47716;BME280;33476;50.984;3.538;2022-11-11T03:14:58;102901.69;;;13.46;68.15
47716;BME280;33476;50.984;3.538;2022-11-11T03:17:23;102909.53;;;13.47;67.99
47716;BME280;33476;50.984;3.538;2022-11-11T03:20:15;102912.34;;;13.40;67.91
47716;BME280;33476;50.984;3.538;2022-11-11T03:23:13;102913.53;;;13.28;68.39
47716;BME280;33476;50.984;3.538;2022-11-11T03:25:44;102904.97;;;13.21;68.69
47716;BME280;33476;50.984;3.538;2022-11-11T03:28:13;102908.41;;;13.24;68.34
47716;BME280;33476;50.984;3.538;2022-11-11T03:30:41;102902.34;;;13.21;68.35
47716;BME280;33476;50.984;3.538;2022-11-11T03:33:07;102907.69;;;13.15;68.50
47716;BME280;33476;50.984;3.538;2022-11-11T03:35:33;102917.38;;;13.13;69.13
47716;BME280;33476;50.984;3.538;2022-11-11T03:37:58;102908.59;;;13.14;68.81
47716;BME280;33476;50.984;3.538;2022-11-11T03:40:46;102910.25;;;13.18;68.62
47716;BME280;33476;50.984;3.538;2022-11-11T03:43:13;102919.22;;;13.10;68.54
47716;BME280;33476;50.984;3.538;2022-11-11T03:45:40;102915.97;;;13.00;69.00
47716;BME280;33476;50.984;3.538;2022-11-11T03:48:05;102910.75;;;13.00;68.82
47716;BME280;33476;50.984;3.538;2022-11-11T03:50:31;102910.56;;;13.06;68.59
47716;BME280;33476;50.984;3.538;2022-11-11T03:52:57;102919.22;;;13.10;68.90
47716;BME280;33476;50.984;3.538;2022-11-11T03:55:22;102916.66;;;13.08;68.47
47716;BME280;33476;50.984;3.538;2022-11-11T03:57:48;102914.00;;;13.10;68.71
47716;BME280;33476;50.984;3.538;2022-11-11T04:00:20;102909.69;;;13.06;68.81
47716;BME280;33476;50.984;3.538;2022-11-11T04:02:45;102913.41;;;12.97;68.72
47716;BME280;33476;50.984;3.538;2022-11-11T04:05:29;102924.72;;;13.01;68.63
47716;BME280;33476;50.984;3.538;2022-11-11T04:08:15;102929.00;;;13.03;68.39
47716;BME280;33476;50.984;3.538;2022-11-11T04:11:06;102924.72;;;13.01;68.36
47716;BME280;33476;50.984;3.538;2022-11-11T04:13:33;102924.53;;;13.08;68.12
47716;BME280;33476;50.984;3.538;2022-11-11T04:16:17;102925.25;;;13.13;68.18
47716;BME280;33476;50.984;3.538;2022-11-11T04:18:42;102932.22;;;13.16;67.96
47716;BME280;33476;50.984;3.538;2022-11-11T04:21:26;102924.34;;;13.14;67.97
47716;BME280;33476;50.984;3.538;2022-11-11T04:24:15;102933.13;;;13.13;68.17
47716;BME280;33476;50.984;3.538;2022-11-11T04:27:02;102933.00;;;13.19;67.79
47716;BME280;33476;50.984;3.538;2022-11-11T04:29:28;102931.16;;;13.23;67.76
47716;BME280;33476;50.984;3.538;2022-11-11T04:34:42;102926.75;;;13.25;67.57
47716;BME280;33476;50.984;3.538;2022-11-11T04:37:08;102929.28;;;13.28;67.42
47716;BME280;33476;50.984;3.538;2022-11-11T04:39:33;102938.06;;;13.27;67.41
47716;BME280;33476;50.984;3.538;2022-11-11T04:42:17;102936.22;;;13.31;67.67
47716;BME280;33476;50.984;3.538;2022-11-11T04:44:43;102935.53;;;13.24;67.59
47716;BME280;33476;50.984;3.538;2022-11-11T04:47:27;102933.78;;;13.23;67.39
47716;BME280;33476;50.984;3.538;2022-11-11T04:49:52;102935.63;;;13.19;67.64
47716;BME280;33476;50.984;3.538;2022-11-11T04:52:17;102924.44;;;13.11;67.95
47716;BME280;33476;50.984;3.538;2022-11-11T04:54:52;102928.81;;;13.11;68.13
47716;BME280;33476;50.984;3.538;2022-11-11T04:57:46;102927.44;;;12.96;68.52
47716;BME280;33476;50.984;3.538;2022-11-11T05:00:15;102939.69;;;12.96;68.59
47716;BME280;33476;50.984;3.538;2022-11-11T05:02:41;102931.88;;;12.94;68.47
47716;BME280;33476;50.984;3.538;2022-11-11T05:05:25;102936.97;;;12.99;68.07
47716;BME280;33476;50.984;3.538;2022-11-11T05:07:51;102934.34;;;13.00;68.17
47716;BME280;33476;50.984;3.538;2022-11-11T05:10:35;102931.59;;;13.05;67.90
47716;BME280;33476;50.984;3.538;2022-11-11T05:13:01;102931.72;;;13.00;68.11
47716;BME280;33476;50.984;3.538;2022-11-11T05:15:45;102928.25;;;12.98;68.17
47716;BME280;33476;50.984;3.538;2022-11-11T05:18:29;102944.94;;;12.96;68.32
47716;BME280;33476;50.984;3.538;2022-11-11T05:21:15;102933.66;;;12.92;68.05
47716;BME280;33476;50.984;3.538;2022-11-11T05:23:45;102941.63;;;12.87;68.42
47716;BME280;33476;50.984;3.538;2022-11-11T05:26:29;102946.97;;;12.84;68.57
47716;BME280;33476;50.984;3.538;2022-11-11T05:28:55;102949.63;;;12.81;68.59
47716;BME280;33476;50.984;3.538;2022-11-11T05:31:20;102940.94;;;12.79;68.93
47716;BME280;33476;50.984;3.538;2022-11-11T05:33:45;102941.81;;;12.80;68.64
47716;BME280;33476;50.984;3.538;2022-11-11T05:36:11;102945.38;;;12.77;68.74
47716;BME280;33476;50.984;3.538;2022-11-11T05:38:36;102932.31;;;12.76;69.12
47716;BME280;33476;50.984;3.538;2022-11-11T05:41:01;102935.84;;;12.73;68.79
47716;BME280;33476;50.984;3.538;2022-11-11T05:43:27;102938.47;;;12.73;68.87
47716;BME280;33476;50.984;3.538;2022-11-11T05:45:52;102944.56;;;12.75;68.93
47716;BME280;33476;50.984;3.538;2022-11-11T05:48:17;102955.03;;;12.75;68.72
47716;BME280;33476;50.984;3.538;2022-11-11T05:50:43;102953.34;;;12.73;68.77
47716;BME280;33476;50.984;3.538;2022-11-11T05:53:08;102969.09;;;12.71;68.80
47716;BME280;33476;50.984;3.538;2022-11-11T05:55:33;102953.41;;;12.70;69.02
47716;BME280;33476;50.984;3.538;2022-11-11T05:57:59;102958.66;;;12.70;68.88
47716;BME280;33476;50.984;3.538;2022-11-11T06:00:24;102955.91;;;12.76;68.86
47716;BME280;33476;50.984;3.538;2022-11-11T06:02:49;102964.69;;;12.73;68.96
47716;BME280;33476;50.984;3.538;2022-11-11T06:05:15;102970.81;;;12.72;68.71
47716;BME280;33476;50.984;3.538;2022-11-11T06:07:40;102963.16;;;12.63;69.08
47716;BME280;33476;50.984;3.538;2022-11-11T06:10:06;102961.44;;;12.62;68.92
47716;BME280;33476;50.984;3.538;2022-11-11T06:12:50;102965.75;;;12.64;69.00
47716;BME280;33476;50.984;3.538;2022-11-11T06:15:35;102960.47;;;12.68;68.52
47716;BME280;33476;50.984;3.538;2022-11-11T06:18:02;102967.44;;;12.69;68.48
47716;BME280;33476;50.984;3.538;2022-11-11T06:20:28;102969.03;;;12.74;68.35
47716;BME280;33476;50.984;3.538;2022-11-11T06:22:54;102968.03;;;12.80;68.46
47716;BME280;33476;50.984;3.538;2022-11-11T06:25:27;102976.84;;;12.77;68.37
47716;BME280;33476;50.984;3.538;2022-11-11T06:28:12;102980.16;;;12.85;67.71
47716;BME280;33476;50.984;3.538;2022-11-11T06:30:38;102985.44;;;12.84;68.16
47716;BME280;33476;50.984;3.538;2022-11-11T06:33:04;102978.47;;;12.83;68.12
47716;BME280;33476;50.984;3.538;2022-11-11T06:35:35;102989.84;;;12.82;68.05
47716;BME280;33476;50.984;3.538;2022-11-11T06:38:01;102997.78;;;12.79;68.49
47716;BME280;33476;50.984;3.538;2022-11-11T06:40:27;102992.81;;;12.67;68.59
47716;BME280;33476;50.984;3.538;2022-11-11T06:42:52;102988.56;;;12.61;68.71
47716;BME280;33476;50.984;3.538;2022-11-11T06:45:18;102992.09;;;12.60;69.20
47716;BME280;33476;50.984;3.538;2022-11-11T06:47:43;102995.50;;;12.63;68.70
47716;BME280;33476;50.984;3.538;2022-11-11T06:50:09;102994.66;;;12.61;68.65
47716;BME280;33476;50.984;3.538;2022-11-11T06:52:37;102995.72;;;12.53;68.75
47716;BME280;33476;50.984;3.538;2022-11-11T06:55:02;102995.69;;;12.54;69.14
47716;BME280;33476;50.984;3.538;2022-11-11T06:57:28;103000.94;;;12.54;68.60
47716;BME280;33476;50.984;3.538;2022-11-11T06:59:53;103003.59;;;12.53;68.80
47716;BME280;33476;50.984;3.538;2022-11-11T07:02:18;102996.66;;;12.50;68.92
47716;BME280;33476;50.984;3.538;2022-11-11T07:04:44;103008.75;;;12.56;68.47
47716;BME280;33476;50.984;3.538;2022-11-11T07:07:09;103006.13;;;12.56;68.50
47716;BME280;33476;50.984;3.538;2022-11-11T07:09:34;103003.59;;;12.53;68.66
47716;BME280;33476;50.984;3.538;2022-11-11T07:12:00;103014.28;;;12.44;68.78
47716;BME280;33476;50.984;3.538;2022-11-11T07:14:25;103014.25;;;12.45;68.89
47716;BME280;33476;50.984;3.538;2022-11-11T07:16:51;103022.94;;;12.47;68.80
47716;BME280;33476;50.984;3.538;2022-11-11T07:19:16;103020.19;;;12.53;68.68
47716;BME280;33476;50.984;3.538;2022-11-11T07:21:42;103031.47;;;12.57;68.52
47716;BME280;33476;50.984;3.538;2022-11-11T07:24:07;103028.72;;;12.63;68.53
47716;BME280;33476;50.984;3.538;2022-11-11T07:26:32;103031.50;;;12.55;68.58
47716;BME280;33476;50.984;3.538;2022-11-11T07:28:58;103028.97;;;12.51;68.87
47716;BME280;33476;50.984;3.538;2022-11-11T07:31:23;103039.47;;;12.49;68.66
47716;BME280;33476;50.984;3.538;2022-11-11T07:33:48;103041.28;;;12.47;68.37
47716;BME280;33476;50.984;3.538;2022-11-11T07:36:14;103051.00;;;12.41;68.61
47716;BME280;33476;50.984;3.538;2022-11-11T07:38:39;103044.91;;;12.40;68.65
47716;BME280;33476;50.984;3.538;2022-11-11T07:41:04;103046.00;;;12.30;68.95
47716;BME280;33476;50.984;3.538;2022-11-11T07:43:29;103048.59;;;12.30;68.99
47716;BME280;33476;50.984;3.538;2022-11-11T07:45:55;103045.03;;;12.35;68.70
47716;BME280;33476;50.984;3.538;2022-11-11T07:48:20;103039.69;;;12.38;68.79
47716;BME280;33476;50.984;3.538;2022-11-11T07:50:46;103059.81;;;12.38;68.78
47716;BME280;33476;50.984;3.538;2022-11-11T07:53:11;103054.69;;;12.33;68.60
47716;BME280;33476;50.984;3.538;2022-11-11T07:55:36;103048.56;;;12.31;68.83
47716;BME280;33476;50.984;3.538;2022-11-11T07:58:02;103060.81;;;12.31;68.92
47716;BME280;33476;50.984;3.538;2022-11-11T08:00:27;103053.88;;;12.28;68.82
47716;BME280;33476;50.984;3.538;2022-11-11T08:02:52;103050.31;;;12.32;68.81
47716;BME280;33476;50.984;3.538;2022-11-11T08:05:18;103050.28;;;12.34;68.45
47716;BME280;33476;50.984;3.538;2022-11-11T08:07:43;103051.13;;;12.36;68.63
47716;BME280;33476;50.984;3.538;2022-11-11T08:10:09;103060.75;;;12.35;68.64
47716;BME280;33476;50.984;3.538;2022-11-11T08:12:35;103059.81;;;12.38;68.22
47716;BME280;33476;50.984;3.538;2022-11-11T08:15:19;103064.25;;;12.34;68.32
47716;BME280;33476;50.984;3.538;2022-11-11T08:17:44;103078.25;;;12.33;68.48
47716;BME280;33476;50.984;3.538;2022-11-11T08:20:10;103076.50;;;12.34;68.62
47716;BME280;33476;50.984;3.538;2022-11-11T08:22:40;103070.50;;;12.27;69.29
47716;BME280;33476;50.984;3.538;2022-11-11T08:25:08;103067.78;;;12.32;69.20
47716;BME280;33476;50.984;3.538;2022-11-11T08:27:34;103069.34;;;12.42;68.84
47716;BME280;33476;50.984;3.538;2022-11-11T08:29:59;103071.03;;;12.45;68.39
47716;BME280;33476;50.984;3.538;2022-11-11T08:32:25;103069.31;;;12.44;68.61
47716;BME280;33476;50.984;3.538;2022-11-11T08:34:51;103068.50;;;12.40;68.68
47716;BME280;33476;50.984;3.538;2022-11-11T08:37:16;103077.41;;;12.31;68.93
47716;BME280;33476;50.984;3.538;2022-11-11T08:39:41;103071.19;;;12.37;68.78
47716;BME280;33476;50.984;3.538;2022-11-11T08:42:07;103063.25;;;12.40;68.37
47716;BME280;33476;50.984;3.538;2022-11-11T08:44:32;103071.09;;;12.42;68.18
47716;BME280;33476;50.984;3.538;2022-11-11T08:46:57;103069.31;;;12.44;68.05
47716;BME280;33476;50.984;3.538;2022-11-11T08:49:23;103066.59;;;12.48;68.20
47716;BME280;33476;50.984;3.538;2022-11-11T08:51:48;103073.63;;;12.46;68.20
47716;BME280;33476;50.984;3.538;2022-11-11T08:54:13;103069.25;;;12.47;67.98
47716;BME280;33476;50.984;3.538;2022-11-11T08:56:39;103056.06;;;12.51;67.89
47716;BME280;33476;50.984;3.538;2022-11-11T08:59:04;103063.00;;;12.54;67.87
47716;BME280;33476;50.984;3.538;2022-11-11T09:01:30;103079.63;;;12.53;67.87
47716;BME280;33476;50.984;3.538;2022-11-11T09:03:56;103077.06;;;12.48;67.75
47716;BME280;33476;50.984;3.538;2022-11-11T09:06:22;103083.16;;;12.49;67.70
47716;BME280;33476;50.984;3.538;2022-11-11T09:08:47;103077.84;;;12.53;67.46
47716;BME280;33476;50.984;3.538;2022-11-11T09:11:12;103085.53;;;12.62;67.17
47716;BME280;33476;50.984;3.538;2022-11-11T09:13:38;103080.22;;;12.65;67.29
47716;BME280;33476;50.984;3.538;2022-11-11T09:16:05;103084.75;;;12.57;67.20
47716;BME280;33476;50.984;3.538;2022-11-11T09:18:30;103085.59;;;12.59;67.75
47716;BME280;33476;50.984;3.538;2022-11-11T09:20:58;103078.63;;;12.57;67.23
47716;BME280;33476;50.984;3.538;2022-11-11T09:23:24;103084.69;;;12.60;67.47
47716;BME280;33476;50.984;3.538;2022-11-11T09:25:50;103089.84;;;12.67;67.19
47716;BME280;33476;50.984;3.538;2022-11-11T09:28:15;103086.25;;;12.71;67.17
47716;BME280;33476;50.984;3.538;2022-11-11T09:30:40;103081.00;;;12.71;67.35
47716;BME280;33476;50.984;3.538;2022-11-11T09:33:06;103093.13;;;12.76;67.19
47716;BME280;33476;50.984;3.538;2022-11-11T09:35:31;103090.53;;;12.73;67.11
47716;BME280;33476;50.984;3.538;2022-11-11T09:37:58;103108.91;;;12.73;67.28
47716;BME280;33476;50.984;3.538;2022-11-11T09:40:27;103108.91;;;12.73;67.10
47716;BME280;33476;50.984;3.538;2022-11-11T09:50:56;103104.28;;;12.86;66.84
47716;BME280;33476;50.984;3.538;2022-11-11T09:53:32;103116.69;;;12.78;67.42
47716;BME280;33476;50.984;3.538;2022-11-11T09:56:08;103122.88;;;12.75;67.10
47716;BME280;33476;50.984;3.538;2022-11-11T10:01:22;103110.56;;;12.77;67.03
47716;BME280;33476;50.984;3.538;2022-11-11T10:04:11;103106.97;;;12.81;67.00
47716;BME280;33476;50.984;3.538;2022-11-11T10:06:38;103113.72;;;12.94;66.70
47716;BME280;33476;50.984;3.538;2022-11-11T10:09:27;103108.38;;;12.98;66.50
47716;BME280;33476;50.984;3.538;2022-11-11T10:12:12;103116.22;;;13.01;66.14
47716;BME280;33476;50.984;3.538;2022-11-11T10:14:42;103116.88;;;13.10;65.94
47716;BME280;33476;50.984;3.538;2022-11-11T10:20:19;103116.63;;;13.23;66.00
47716;BME280;33476;50.984;3.538;2022-11-11T10:22:50;103119.88;;;13.34;65.27
47716;BME280;33476;50.984;3.538;2022-11-11T10:25:20;103128.53;;;13.37;65.27
47716;BME280;33476;50.984;3.538;2022-11-11T10:27:48;103116.22;;;13.39;65.34
47716;BME280;33476;50.984;3.538;2022-11-11T10:32:53;103115.78;;;13.59;65.03
47716;BME280;33476;50.984;3.538;2022-11-11T10:35:25;103110.25;;;13.70;64.74
47716;BME280;33476;50.984;3.538;2022-11-11T10:40:49;103108.06;;;14.21;63.05
47716;BME280;33476;50.984;3.538;2022-11-11T10:43:27;103110.84;;;14.49;62.41
47716;BME280;33476;50.984;3.538;2022-11-11T10:46:34;103097.47;;;14.86;61.49
47716;BME280;33476;50.984;3.538;2022-11-11T10:49:06;103105.66;;;15.35;60.01
47716;BME280;33476;50.984;3.538;2022-11-11T10:51:43;103098.59;;;15.63;58.79
47716;BME280;33476;50.984;3.538;2022-11-11T10:54:25;103091.72;;;15.86;58.35
47716;BME280;33476;50.984;3.538;2022-11-11T10:57:20;103085.00;;;16.27;57.19
47716;BME280;33476;50.984;3.538;2022-11-11T11:00:07;103094.03;;;16.45;56.35
47716;BME280;33476;50.984;3.538;2022-11-11T11:02:39;103089.97;;;16.60;55.82
47716;BME280;33476;50.984;3.538;2022-11-11T11:07:46;103096.41;;;16.99;54.69
47716;BME280;33476;50.984;3.538;2022-11-11T11:10:17;103093.34;;;17.10;53.90
47716;BME280;33476;50.984;3.538;2022-11-11T11:12:50;103088.00;;;17.11;54.03
47716;BME280;33476;50.984;3.538;2022-11-11T11:15:24;103081.69;;;17.16;54.05
47716;BME280;33476;50.984;3.538;2022-11-11T11:18:10;103083.66;;;17.32;53.49
47716;BME280;33476;50.984;3.538;2022-11-11T11:20:37;103073.09;;;17.32;53.08
47716;BME280;33476;50.984;3.538;2022-11-11T11:23:02;103067.88;;;17.31;53.51
47716;BME280;33476;50.984;3.538;2022-11-11T11:25:30;103068.97;;;17.25;53.35
47716;BME280;33476;50.984;3.538;2022-11-11T11:28:17;103055.38;;;17.34;53.67
47716;BME280;33476;50.984;3.538;2022-11-11T11:31:04;103056.16;;;17.38;52.98
47716;BME280;33476;50.984;3.538;2022-11-11T11:36:16;103055.63;;;17.50;52.79
47716;BME280;33476;50.984;3.538;2022-11-11T11:38:48;103065.03;;;17.35;53.04
47716;BME280;33476;50.984;3.538;2022-11-11T11:41:20;103066.75;;;17.36;52.98
47716;BME280;33476;50.984;3.538;2022-11-11T11:44:00;103063.31;;;17.56;52.76
47716;BME280;33476;50.984;3.538;2022-11-11T11:46:38;103062.16;;;17.62;52.24
47716;BME280;33476;50.984;3.538;2022-11-11T11:49:19;103059.53;;;17.62;51.93
47716;BME280;33476;50.984;3.538;2022-11-11T11:52:11;103068.22;;;17.44;52.48
47716;BME280;33476;50.984;3.538;2022-11-11T11:55:01;103054.72;;;17.07;53.12
47716;BME280;33476;50.984;3.538;2022-11-11T12:00:27;103058.78;;;16.71;54.34
47716;BME280;33476;50.984;3.538;2022-11-11T12:05:48;103050.31;;;16.61;54.23
47716;BME280;33476;50.984;3.538;2022-11-11T12:08:37;103042.94;;;16.47;54.54
47716;BME280;33476;50.984;3.538;2022-11-11T12:22:54;103042.75;;;16.28;55.03
47716;BME280;33476;50.984;3.538;2022-11-11T12:30:24;103028.72;;;16.28;54.96
47716;BME280;33476;50.984;3.538;2022-11-11T12:38:13;103024.53;;;16.46;54.44
47716;BME280;33476;50.984;3.538;2022-11-11T12:41:12;103029.13;;;16.41;54.52
47716;BME280;33476;50.984;3.538;2022-11-11T12:46:41;103020.09;;;16.46;54.86
47716;BME280;33476;50.984;3.538;2022-11-11T12:49:27;103009.47;;;16.49;54.87
47716;BME280;33476;50.984;3.538;2022-11-11T12:51:56;103009.16;;;16.57;54.92
47716;BME280;33476;50.984;3.538;2022-11-11T12:57:21;103009.41;;;16.51;55.12
47716;BME280;33476;50.984;3.538;2022-11-11T13:00:14;103003.41;;;16.46;55.07
47716;BME280;33476;50.984;3.538;2022-11-11T13:02:57;103002.91;;;16.36;55.18
47716;BME280;33476;50.984;3.538;2022-11-11T13:16:40;102999.13;;;16.20;55.23
47716;BME280;33476;50.984;3.538;2022-11-11T13:19:13;103003.88;;;16.10;55.45
47716;BME280;33476;50.984;3.538;2022-11-11T13:21:53;102997.75;;;16.10;55.52
47716;BME280;33476;50.984;3.538;2022-11-11T13:24:22;102989.63;;;16.16;55.57
47716;BME280;33476;50.984;3.538;2022-11-11T13:27:44;102996.66;;;16.15;55.79
47716;BME280;33476;50.984;3.538;2022-11-11T13:35:01;102994.25;;;16.09;56.03
47716;BME280;33476;50.984;3.538;2022-11-11T13:37:29;102997.22;;;16.00;55.85
47716;BME280;33476;50.984;3.538;2022-11-11T13:40:06;103000.94;;;15.94;55.81
47716;BME280;33476;50.984;3.538;2022-11-11T13:42:41;103002.50;;;16.00;55.72
47716;BME280;33476;50.984;3.538;2022-11-11T13:45:23;103008.75;;;15.97;55.72
47716;BME280;33476;50.984;3.538;2022-11-11T13:47:50;103001.47;;;16.04;55.52
47716;BME280;33476;50.984;3.538;2022-11-11T13:50:30;102996.06;;;15.84;55.74
47716;BME280;33476;50.984;3.538;2022-11-11T13:53:03;102996.84;;;15.86;55.65
47716;BME280;33476;50.984;3.538;2022-11-11T13:55:33;102989.00;;;15.84;55.87
47716;BME280;33476;50.984;3.538;2022-11-11T13:58:01;102990.72;;;15.85;55.92
47716;BME280;33476;50.984;3.538;2022-11-11T14:00:33;102996.06;;;15.84;56.14
47716;BME280;33476;50.984;3.538;2022-11-11T14:05:44;102993.69;;;15.76;56.22
47716;BME280;33476;50.984;3.538;2022-11-11T14:13:48;102981.69;;;15.67;56.29
47716;BME280;33476;50.984;3.538;2022-11-11T14:21:48;102989.81;;;15.61;56.48
47716;BME280;33476;50.984;3.538;2022-11-11T14:24:41;102994.16;;;15.62;56.66
47716;BME280;33476;50.984;3.538;2022-11-11T14:29:36;102988.13;;;15.59;57.09
47716;BME280;33476;50.984;3.538;2022-11-11T14:32:18;102988.22;;;15.56;57.13
47716;BME280;33476;50.984;3.538;2022-11-11T14:37:48;102986.25;;;15.36;58.03
47716;BME280;33476;50.984;3.538;2022-11-11T14:40:24;102987.16;;;15.35;58.18
47716;BME280;33476;50.984;3.538;2022-11-11T14:42:51;102987.03;;;15.39;58.21
47716;BME280;33476;50.984;3.538;2022-11-11T14:47:49;102989.38;;;15.21;58.61
47716;BME280;33476;50.984;3.538;2022-11-11T14:52:58;102992.25;;;15.13;58.40
47716;BME280;33476;50.984;3.538;2022-11-11T14:55:29;102991.53;;;15.09;58.77
47716;BME280;33476;50.984;3.538;2022-11-11T14:58:07;102982.66;;;15.12;58.43
47716;BME280;33476;50.984;3.538;2022-11-11T15:00:47;102994.97;;;15.11;58.64